createdAt,value
2019-01-22T00:04:09.389Z,29.60
2019-01-22T00:09:13.243Z,28.13
2019-01-22T00:14:16.917Z,29.10
2019-01-22T00:19:20.932Z,28.40
2019-01-22T00:24:24.614Z,30.27
2019-01-22T00:29:28.748Z,29.20
2019-01-22T00:34:32.482Z,30.47
2019-01-22T00:39:36.539Z,31.67
2019-01-22T00:44:40.283Z,33.03
2019-01-22T00:49:44.308Z,32.90
2019-01-22T00:54:47.986Z,32.87
2019-01-22T00:59:54.485Z,34.20
2019-01-22T01:04:58.268Z,33.67
2019-01-22T01:10:01.965Z,32.47
2019-01-22T01:15:07.951Z,31.53
2019-01-22T01:20:14.026Z,35.03
2019-01-22T01:25:19.820Z,32.67
2019-01-22T01:30:25.424Z,31.87
2019-01-22T01:35:29.536Z,32.33
2019-01-22T01:40:33.227Z,33.53
2019-01-22T01:45:36.999Z,31.17
2019-01-22T01:50:41.011Z,32.53
2019-01-22T01:55:45.520Z,34.10
2019-01-22T02:00:49.248Z,30.83
2019-01-22T02:05:53.269Z,33.03
2019-01-22T02:10:57.222Z,31.30
2019-01-22T02:16:11.894Z,31.40
2019-01-22T02:22:01.940Z,32.57
2019-01-22T02:27:39.541Z,34.20
2019-01-22T02:33:07.217Z,33.17
2019-01-22T02:38:58.214Z,33.00
2019-01-22T02:44:35.344Z,32.17
2019-01-22T02:49:59.624Z,32.93
2019-01-22T02:55:09.025Z,31.37
2019-01-22T03:00:57.481Z,31.10
2019-01-22T03:06:26.358Z,32.13
2019-01-22T03:12:02.214Z,33.10
2019-01-22T03:17:45.423Z,32.63
2019-01-22T03:23:31.126Z,33.07
2019-01-22T03:29:05.263Z,32.63
2019-01-22T03:34:13.898Z,32.90
2019-01-22T03:39:41.975Z,32.30
2019-01-22T03:45:06.638Z,32.73
2019-01-22T03:50:43.422Z,31.63
2019-01-22T03:56:00.215Z,31.10
2019-01-22T04:01:16.358Z,31.00
2019-01-22T04:06:35.116Z,31.17
2019-01-22T04:11:43.762Z,31.70
2019-01-22T04:16:47.454Z,32.47
2019-01-22T04:21:51.355Z,29.73
2019-01-22T04:27:17.896Z,31.30
2019-01-22T04:32:27.550Z,33.10
2019-01-22T04:37:58.414Z,31.60
2019-01-22T04:43:27.431Z,30.13
2019-01-22T04:48:56.839Z,29.47
2019-01-22T04:54:37.980Z,30.50
2019-01-22T04:59:58.263Z,31.33
2019-01-22T05:05:33.843Z,30.93
2019-01-22T05:11:06.776Z,29.73
2019-01-22T05:16:29.477Z,31.40
2019-01-22T05:22:04.063Z,32.90
2019-01-22T05:27:26.615Z,37.70
2019-01-22T05:32:40.998Z,34.90
2019-01-22T05:38:10.967Z,34.17
2019-01-22T05:43:35.893Z,36.00
2019-01-22T05:49:02.988Z,38.43
2019-01-22T05:54:25.089Z,38.87
2019-01-22T05:59:58.198Z,39.93
2019-01-22T06:05:49.812Z,37.93
2019-01-22T06:11:39.341Z,37.63
2019-01-22T06:16:54.924Z,36.30
2019-01-22T06:22:31.709Z,34.57
2019-01-22T06:27:48.752Z,37.50
2019-01-22T06:33:16.412Z,37.63
2019-01-22T06:38:58.492Z,38.87
2019-01-22T06:44:47.662Z,40.33
2019-01-22T06:50:12.899Z,38.43
2019-01-22T06:55:51.830Z,37.27
2019-01-22T07:01:34.262Z,38.33
2019-01-22T07:07:07.062Z,38.40
2019-01-22T07:12:22.974Z,37.77
2019-01-22T07:17:44.933Z,38.97
2019-01-22T07:23:15.905Z,38.10
2019-01-22T07:28:54.402Z,39.93
2019-01-22T07:34:17.949Z,38.53
2019-01-22T07:39:32.413Z,36.23
2019-01-22T07:45:23.721Z,34.80
2019-01-22T07:51:03.756Z,33.57
2019-01-22T07:56:32.952Z,33.90
2019-01-22T08:02:03.962Z,31.93
2019-01-22T08:07:53.162Z,33.67
2019-01-22T08:13:24.660Z,32.33
2019-01-22T08:18:51.727Z,32.70
2019-01-22T08:24:10.227Z,31.33
2019-01-22T08:29:37.854Z,33.33
2019-01-22T08:35:16.833Z,34.33
2019-01-22T08:40:53.709Z,35.03
2019-01-22T08:46:38.627Z,34.07
2019-01-22T08:52:00.076Z,33.47
2019-01-22T08:57:31.965Z,33.27
2019-01-22T09:02:57.487Z,34.63
2019-01-22T09:08:51.696Z,31.57
2019-01-22T09:14:36.478Z,30.43
2019-01-22T09:20:27.379Z,31.70
2019-01-22T09:25:42.907Z,30.27
2019-01-22T09:31:07.004Z,30.17
2019-01-22T09:36:53.516Z,30.37
2019-01-22T09:41:57.271Z,32.40
2019-01-22T09:47:01.349Z,31.50
2019-01-22T09:52:05.120Z,31.53
2019-01-22T09:57:09.133Z,30.60
2019-01-22T10:02:13.321Z,33.00
2019-01-22T10:07:17.012Z,29.83
2019-01-22T10:12:21.148Z,30.83
2019-01-22T10:17:26.782Z,31.27
2019-01-22T10:22:30.488Z,31.13
2019-01-22T10:27:34.209Z,30.40
2019-01-22T10:32:37.931Z,31.17
2019-01-22T10:37:42.013Z,31.53
2019-01-22T10:42:45.720Z,30.57
2019-01-22T10:47:49.405Z,29.47
2019-01-22T10:52:53.157Z,29.93
2019-01-22T10:57:57.083Z,30.27
2019-01-22T11:03:00.804Z,30.43
2019-01-22T11:08:04.745Z,30.83
2019-01-22T11:13:08.497Z,29.70
2019-01-22T11:18:12.543Z,30.63
2019-01-22T11:23:16.252Z,30.50
2019-01-22T11:28:20.334Z,30.73
2019-01-22T11:33:24.363Z,29.03
2019-01-22T11:38:28.103Z,29.33
2019-01-22T11:43:32.215Z,31.60
2019-01-22T11:48:36.317Z,29.97
2019-01-22T11:53:40.063Z,29.80
2019-01-22T11:58:43.736Z,29.70
2019-01-22T12:03:47.457Z,30.17
2019-01-22T12:08:51.151Z,29.33
2019-01-22T12:13:54.830Z,28.23
2019-01-22T12:18:58.924Z,26.67
2019-01-22T12:24:02.628Z,28.37
2019-01-22T12:29:06.876Z,26.47
2019-01-22T12:34:10.732Z,27.20
2019-01-22T12:39:14.632Z,25.53
2019-01-22T12:44:18.392Z,25.57
2019-01-22T12:49:22.255Z,25.17
2019-01-22T12:54:26.052Z,25.07
2019-01-22T12:59:31.333Z,24.73
2019-01-22T13:04:35.219Z,25.73
2019-01-22T13:09:39.449Z,25.27
2019-01-22T13:14:44.012Z,25.70
2019-01-22T13:19:47.803Z,25.17
2019-01-22T13:24:51.571Z,25.37
2019-01-22T13:30:01.153Z,23.67
2019-01-22T13:35:00.631Z,25.00
2019-01-22T13:40:07.375Z,23.97
2019-01-22T13:45:14.625Z,23.07
2019-01-22T13:50:19.500Z,22.30
2019-01-22T13:55:29.079Z,23.07
2019-01-22T14:00:32.785Z,20.40
2019-01-22T14:05:36.523Z,20.83
2019-01-22T14:10:40.531Z,21.57
2019-01-22T14:15:44.264Z,21.80
2019-01-22T14:20:48.027Z,23.80
2019-01-22T14:25:52.324Z,22.47
2019-01-22T14:30:56.032Z,22.77
2019-01-22T14:35:59.758Z,22.80
2019-01-22T14:41:04.138Z,23.07
2019-01-22T14:46:07.961Z,23.13
2019-01-22T14:51:11.921Z,23.13
2019-01-22T14:56:15.855Z,22.87
2019-01-22T15:01:19.601Z,21.77
2019-01-22T15:06:23.393Z,16.70
2019-01-22T15:11:27.392Z,19.40
2019-01-22T15:16:31.391Z,21.50
2019-01-22T15:21:35.090Z,22.00
2019-01-22T15:26:40.986Z,21.50
2019-01-22T15:31:45.644Z,22.07
2019-01-22T15:36:49.763Z,23.03
2019-01-22T15:41:53.490Z,23.37
2019-01-22T15:46:57.218Z,24.23
2019-01-22T15:52:01.309Z,22.73
2019-01-22T15:57:05.379Z,23.83
2019-01-22T16:02:09.129Z,24.63
2019-01-22T16:07:12.843Z,22.90
2019-01-22T16:12:16.539Z,22.47
2019-01-22T16:17:20.288Z,20.40
2019-01-22T16:22:24.277Z,25.67
2019-01-22T16:27:27.943Z,22.33
2019-01-22T16:32:31.615Z,22.10
2019-01-22T16:37:35.649Z,23.23
2019-01-22T16:42:39.356Z,23.47
2019-01-22T16:47:43.073Z,23.27
2019-01-22T16:52:46.867Z,23.63
2019-01-22T16:57:50.576Z,24.37
2019-01-22T17:02:54.549Z,23.23
2019-01-22T17:07:58.427Z,24.47
2019-01-22T17:13:02.127Z,26.53
2019-01-22T17:18:10.942Z,25.00
2019-01-22T17:23:23.350Z,21.23
2019-01-22T17:28:28.777Z,24.57
2019-01-22T17:33:42.427Z,24.10
2019-01-22T17:38:46.208Z,23.17
2019-01-22T17:43:49.939Z,23.90
2019-01-22T17:48:55.778Z,25.77
2019-01-22T17:53:59.572Z,24.60
2019-01-22T17:59:03.261Z,23.83
2019-01-22T18:04:07.095Z,22.83
2019-01-22T18:09:11.400Z,24.77
2019-01-22T18:14:15.153Z,23.00
2019-01-22T18:19:23.811Z,24.07
2019-01-22T18:24:24.246Z,24.07
2019-01-22T18:29:27.977Z,23.40
2019-01-22T18:34:32.505Z,24.27
2019-01-22T18:39:36.205Z,25.17
2019-01-22T18:44:40.204Z,25.43
2019-01-22T18:49:43.909Z,26.33
2019-01-22T18:54:47.621Z,24.90
2019-01-22T18:59:51.323Z,24.30
2019-01-22T19:04:55.108Z,24.40
2019-01-22T19:09:58.956Z,25.10
2019-01-22T19:15:03.463Z,23.67
2019-01-22T19:20:07.657Z,23.73
2019-01-22T19:25:19.985Z,25.23
2019-01-22T19:30:25.770Z,25.13
2019-01-22T19:35:29.556Z,24.97
2019-01-22T19:40:33.643Z,25.53
2019-01-22T19:45:37.665Z,25.30
2019-01-22T19:50:41.355Z,24.23
2019-01-22T19:55:45.398Z,23.83
2019-01-22T20:00:49.458Z,23.70
2019-01-22T20:05:53.322Z,22.93
2019-01-22T20:10:58.315Z,25.43
2019-01-22T20:16:02.336Z,24.83
2019-01-22T20:21:06.572Z,24.47
2019-01-22T20:26:10.287Z,25.63
2019-01-22T20:31:14.238Z,24.87
2019-01-22T20:36:18.251Z,24.70
2019-01-22T20:41:22.007Z,24.27
2019-01-22T20:46:25.950Z,23.10
2019-01-22T20:51:29.656Z,24.33
2019-01-22T20:56:33.381Z,20.43
2019-01-22T21:01:37.580Z,23.70
2019-01-22T21:06:41.325Z,23.13
2019-01-22T21:11:45.046Z,23.97
2019-01-22T21:16:48.763Z,22.73
2019-01-22T21:21:52.472Z,22.93
2019-01-22T21:26:56.532Z,23.83
2019-01-22T21:32:00.237Z,23.13
2019-01-22T21:37:04.094Z,22.73
2019-01-22T21:42:08.274Z,23.40
2019-01-22T21:47:12.285Z,24.07
2019-01-22T21:52:15.948Z,22.17
2019-01-22T21:57:19.690Z,20.33
2019-01-22T22:02:23.402Z,21.70
2019-01-22T22:07:27.195Z,20.13
2019-01-22T22:12:31.128Z,21.43
2019-01-22T22:17:34.814Z,21.23
2019-01-22T22:22:38.509Z,19.00
2019-01-22T22:27:42.314Z,13.00
2019-01-22T22:32:46.235Z,19.70
2019-01-22T22:37:49.923Z,17.20
2019-01-22T22:42:53.731Z,18.70
2019-01-22T22:47:57.479Z,17.67
2019-01-22T22:53:01.188Z,18.93
2019-01-22T22:58:05.239Z,16.73
2019-01-22T23:03:09.464Z,16.40
2019-01-22T23:08:13.406Z,16.23
2019-01-22T23:13:17.509Z,15.90
2019-01-22T23:18:21.810Z,16.13
2019-01-22T23:23:25.684Z,16.03
2019-01-22T23:28:29.353Z,15.97
2019-01-22T23:33:33.046Z,16.20
2019-01-22T23:38:37.039Z,16.60
2019-01-22T23:43:40.740Z,16.20
2019-01-22T23:48:45.517Z,15.13
2019-01-22T23:53:49.207Z,16.27
2019-01-22T23:58:52.925Z,16.27
